sensor_id;sensor_type;location;lat;lon;timestamp;P1;durP1;ratioP1;P2;durP2;ratioP2
11829;SDS011;5972;42.134;24.718;2022-12-10T00:00:33;43.28;;;21.50;;
11829;SDS011;5972;42.134;24.718;2022-12-10T00:03:00;42.90;;;20.90;;
11829;SDS011;5972;42.134;24.718;2022-12-10T00:05:29;41.13;;;21.20;;
11829;SDS011;5972;42.134;24.718;2022-12-10T00:07:56;45.25;;;22.30;;
11829;SDS011;5972;42.134;24.718;2022-12-10T00:10:22;45.40;;;22.08;;
11829;SDS011;5972;42.134;24.718;2022-12-10T00:12:49;43.25;;;20.75;;
11829;SDS011;5972;42.134;24.718;2022-12-10T00:15:16;47.95;;;21.52;;
11829;SDS011;5972;42.134;24.718;2022-12-10T00:17:43;47.75;;;22.05;;
11829;SDS011;5972;42.134;24.718;2022-12-10T00:20:10;46.35;;;22.15;;
11829;SDS011;5972;42.134;24.718;2022-12-10T00:22:38;46.47;;;20.83;;
11829;SDS011;5972;42.134;24.718;2022-12-10T00:25:05;45.45;;;21.48;;
11829;SDS011;5972;42.134;24.718;2022-12-10T00:27:33;50.65;;;21.27;;
11829;SDS011;5972;42.134;24.718;2022-12-10T00:29:59;46.45;;;22.30;;
11829;SDS011;5972;42.134;24.718;2022-12-10T00:32:26;44.17;;;20.70;;
11829;SDS011;5972;42.134;24.718;2022-12-10T00:34:53;47.70;;;21.00;;
11829;SDS011;5972;42.134;24.718;2022-12-10T00:37:20;39.60;;;19.75;;
11829;SDS011;5972;42.134;24.718;2022-12-10T00:39:48;42.83;;;20.90;;
11829;SDS011;5972;42.134;24.718;2022-12-10T00:42:15;42.35;;;22.02;;
11829;SDS011;5972;42.134;24.718;2022-12-10T00:44:42;45.40;;;22.65;;
11829;SDS011;5972;42.134;24.718;2022-12-10T00:47:08;45.03;;;21.52;;
11829;SDS011;5972;42.134;24.718;2022-12-10T00:49:35;42.35;;;21.70;;
11829;SDS011;5972;42.134;24.718;2022-12-10T00:52:02;47.13;;;22.30;;
11829;SDS011;5972;42.134;24.718;2022-12-10T00:54:29;48.05;;;22.75;;
11829;SDS011;5972;42.134;24.718;2022-12-10T00:56:57;47.25;;;23.58;;
11829;SDS011;5972;42.134;24.718;2022-12-10T00:59:24;50.75;;;25.23;;
11829;SDS011;5972;42.134;24.718;2022-12-10T01:01:50;53.25;;;24.25;;
11829;SDS011;5972;42.134;24.718;2022-12-10T01:04:17;53.33;;;25.83;;
11829;SDS011;5972;42.134;24.718;2022-12-10T01:06:45;67.93;;;27.85;;
11829;SDS011;5972;42.134;24.718;2022-12-10T01:09:14;73.15;;;28.88;;
11829;SDS011;5972;42.134;24.718;2022-12-10T01:11:44;63.53;;;29.30;;
11829;SDS011;5972;42.134;24.718;2022-12-10T01:14:14;62.80;;;28.67;;
11829;SDS011;5972;42.134;24.718;2022-12-10T01:16:42;66.40;;;30.05;;
11829;SDS011;5972;42.134;24.718;2022-12-10T01:19:09;63.35;;;30.00;;
11829;SDS011;5972;42.134;24.718;2022-12-10T01:21:36;71.85;;;30.85;;
11829;SDS011;5972;42.134;24.718;2022-12-10T01:24:04;65.88;;;29.10;;
11829;SDS011;5972;42.134;24.718;2022-12-10T01:26:33;71.13;;;29.50;;
11829;SDS011;5972;42.134;24.718;2022-12-10T01:29:00;62.40;;;29.27;;
11829;SDS011;5972;42.134;24.718;2022-12-10T01:31:31;59.78;;;27.08;;
11829;SDS011;5972;42.134;24.718;2022-12-10T01:33:59;61.63;;;29.60;;
11829;SDS011;5972;42.134;24.718;2022-12-10T01:36:27;62.13;;;28.75;;
11829;SDS011;5972;42.134;24.718;2022-12-10T01:38:55;57.13;;;27.70;;
11829;SDS011;5972;42.134;24.718;2022-12-10T01:41:23;62.22;;;30.42;;
11829;SDS011;5972;42.134;24.718;2022-12-10T01:43:53;59.53;;;29.02;;
11829;SDS011;5972;42.134;24.718;2022-12-10T01:46:22;63.20;;;29.58;;
11829;SDS011;5972;42.134;24.718;2022-12-10T01:48:52;51.03;;;26.90;;
11829;SDS011;5972;42.134;24.718;2022-12-10T01:51:19;58.25;;;28.88;;
11829;SDS011;5972;42.134;24.718;2022-12-10T01:53:47;61.67;;;29.33;;
11829;SDS011;5972;42.134;24.718;2022-12-10T01:56:15;56.30;;;27.75;;
11829;SDS011;5972;42.134;24.718;2022-12-10T01:58:43;51.38;;;28.10;;
11829;SDS011;5972;42.134;24.718;2022-12-10T02:01:11;52.67;;;26.60;;
11829;SDS011;5972;42.134;24.718;2022-12-10T02:03:45;50.63;;;26.40;;
11829;SDS011;5972;42.134;24.718;2022-12-10T02:06:23;47.55;;;26.52;;
11829;SDS011;5972;42.134;24.718;2022-12-10T02:09:00;52.38;;;25.13;;
11829;SDS011;5972;42.134;24.718;2022-12-10T02:11:36;45.35;;;24.75;;
11829;SDS011;5972;42.134;24.718;2022-12-10T02:14:10;44.28;;;24.60;;
11829;SDS011;5972;42.134;24.718;2022-12-10T02:16:44;44.30;;;23.70;;
11829;SDS011;5972;42.134;24.718;2022-12-10T02:19:18;40.33;;;23.35;;
11829;SDS011;5972;42.134;24.718;2022-12-10T02:21:54;46.47;;;22.67;;
11829;SDS011;5972;42.134;24.718;2022-12-10T02:24:23;46.60;;;23.85;;
11829;SDS011;5972;42.134;24.718;2022-12-10T02:26:56;39.80;;;23.52;;
11829;SDS011;5972;42.134;24.718;2022-12-10T02:29:31;45.63;;;24.20;;
11829;SDS011;5972;42.134;24.718;2022-12-10T02:32:03;38.83;;;21.77;;
11829;SDS011;5972;42.134;24.718;2022-12-10T02:34:33;38.20;;;22.40;;
11829;SDS011;5972;42.134;24.718;2022-12-10T02:37:06;38.95;;;22.13;;
11829;SDS011;5972;42.134;24.718;2022-12-10T02:39:38;38.20;;;21.30;;
11829;SDS011;5972;42.134;24.718;2022-12-10T02:42:09;39.00;;;22.00;;
11829;SDS011;5972;42.134;24.718;2022-12-10T02:44:41;43.65;;;22.85;;
11829;SDS011;5972;42.134;24.718;2022-12-10T02:47:09;39.28;;;22.65;;
11829;SDS011;5972;42.134;24.718;2022-12-10T02:49:38;43.35;;;22.98;;
11829;SDS011;5972;42.134;24.718;2022-12-10T02:52:07;43.33;;;22.73;;
11829;SDS011;5972;42.134;24.718;2022-12-10T02:54:39;44.60;;;22.60;;
11829;SDS011;5972;42.134;24.718;2022-12-10T02:57:09;43.33;;;22.65;;
11829;SDS011;5972;42.134;24.718;2022-12-10T02:59:47;43.40;;;22.67;;
11829;SDS011;5972;42.134;24.718;2022-12-10T03:02:24;38.97;;;22.33;;
11829;SDS011;5972;42.134;24.718;2022-12-10T03:04:58;37.40;;;21.88;;
11829;SDS011;5972;42.134;24.718;2022-12-10T03:07:32;37.58;;;22.55;;
11829;SDS011;5972;42.134;24.718;2022-12-10T03:10:06;41.60;;;21.60;;
11829;SDS011;5972;42.134;24.718;2022-12-10T03:12:41;39.67;;;23.80;;
11829;SDS011;5972;42.134;24.718;2022-12-10T03:15:13;39.78;;;23.05;;
11829;SDS011;5972;42.134;24.718;2022-12-10T03:17:42;45.05;;;23.77;;
11829;SDS011;5972;42.134;24.718;2022-12-10T03:20:12;45.60;;;24.02;;
11829;SDS011;5972;42.134;24.718;2022-12-10T03:22:41;47.13;;;23.67;;
11829;SDS011;5972;42.134;24.718;2022-12-10T03:25:10;44.70;;;24.33;;
11829;SDS011;5972;42.134;24.718;2022-12-10T03:27:42;49.22;;;23.88;;
11829;SDS011;5972;42.134;24.718;2022-12-10T03:30:13;45.60;;;24.95;;
11829;SDS011;5972;42.134;24.718;2022-12-10T03:32:40;51.75;;;24.42;;
11829;SDS011;5972;42.134;24.718;2022-12-10T03:35:08;47.05;;;24.20;;
11829;SDS011;5972;42.134;24.718;2022-12-10T03:37:37;47.85;;;23.92;;
11829;SDS011;5972;42.134;24.718;2022-12-10T03:40:04;51.38;;;25.45;;
11829;SDS011;5972;42.134;24.718;2022-12-10T03:42:34;62.95;;;25.40;;
11829;SDS011;5972;42.134;24.718;2022-12-10T03:45:01;52.05;;;25.25;;
11829;SDS011;5972;42.134;24.718;2022-12-10T03:47:30;50.13;;;25.10;;
11829;SDS011;5972;42.134;24.718;2022-12-10T03:49:58;52.03;;;25.70;;
11829;SDS011;5972;42.134;24.718;2022-12-10T03:52:24;51.22;;;26.23;;
11829;SDS011;5972;42.134;24.718;2022-12-10T03:54:51;47.60;;;24.33;;
11829;SDS011;5972;42.134;24.718;2022-12-10T03:57:18;46.53;;;23.15;;
11829;SDS011;5972;42.134;24.718;2022-12-10T03:59:45;46.88;;;23.08;;
11829;SDS011;5972;42.134;24.718;2022-12-10T04:02:12;44.00;;;23.43;;
11829;SDS011;5972;42.134;24.718;2022-12-10T04:04:40;40.65;;;21.00;;
11829;SDS011;5972;42.134;24.718;2022-12-10T04:07:07;38.75;;;21.42;;
11829;SDS011;5972;42.134;24.718;2022-12-10T04:09:34;35.22;;;19.75;;
11829;SDS011;5972;42.134;24.718;2022-12-10T04:12:01;42.92;;;21.23;;
11829;SDS011;5972;42.134;24.718;2022-12-10T04:14:28;41.83;;;20.40;;
11829;SDS011;5972;42.134;24.718;2022-12-10T04:17:12;43.45;;;21.23;;
11829;SDS011;5972;42.134;24.718;2022-12-10T04:19:40;41.85;;;20.92;;
11829;SDS011;5972;42.134;24.718;2022-12-10T04:22:07;40.20;;;20.20;;
11829;SDS011;5972;42.134;24.718;2022-12-10T04:24:52;41.45;;;20.33;;
11829;SDS011;5972;42.134;24.718;2022-12-10T04:27:47;40.50;;;20.65;;
11829;SDS011;5972;42.134;24.718;2022-12-10T04:30:14;46.53;;;21.63;;
11829;SDS011;5972;42.134;24.718;2022-12-10T04:32:41;42.17;;;21.02;;
11829;SDS011;5972;42.134;24.718;2022-12-10T04:35:09;39.38;;;20.02;;
11829;SDS011;5972;42.134;24.718;2022-12-10T04:37:37;41.08;;;19.88;;
11829;SDS011;5972;42.134;24.718;2022-12-10T04:40:04;39.40;;;21.00;;
11829;SDS011;5972;42.134;24.718;2022-12-10T04:42:32;46.40;;;20.65;;
11829;SDS011;5972;42.134;24.718;2022-12-10T04:44:59;49.15;;;22.05;;
11829;SDS011;5972;42.134;24.718;2022-12-10T04:47:25;47.60;;;21.45;;
11829;SDS011;5972;42.134;24.718;2022-12-10T04:49:52;51.00;;;20.67;;
11829;SDS011;5972;42.134;24.718;2022-12-10T04:52:20;40.67;;;21.13;;
11829;SDS011;5972;42.134;24.718;2022-12-10T04:54:47;41.05;;;21.13;;
11829;SDS011;5972;42.134;24.718;2022-12-10T04:57:14;42.47;;;19.50;;
11829;SDS011;5972;42.134;24.718;2022-12-10T04:59:41;41.97;;;19.58;;
11829;SDS011;5972;42.134;24.718;2022-12-10T05:02:08;39.05;;;18.92;;
11829;SDS011;5972;42.134;24.718;2022-12-10T05:04:35;34.83;;;18.27;;
11829;SDS011;5972;42.134;24.718;2022-12-10T05:07:02;42.45;;;19.90;;
11829;SDS011;5972;42.134;24.718;2022-12-10T05:09:30;38.28;;;19.33;;
11829;SDS011;5972;42.134;24.718;2022-12-10T05:11:56;39.35;;;19.05;;
11829;SDS011;5972;42.134;24.718;2022-12-10T05:14:23;39.25;;;19.00;;
11829;SDS011;5972;42.134;24.718;2022-12-10T05:16:51;38.30;;;18.80;;
11829;SDS011;5972;42.134;24.718;2022-12-10T05:19:18;39.97;;;19.38;;
11829;SDS011;5972;42.134;24.718;2022-12-10T05:21:46;34.42;;;17.92;;
11829;SDS011;5972;42.134;24.718;2022-12-10T05:24:32;40.53;;;19.67;;
11829;SDS011;5972;42.134;24.718;2022-12-10T05:26:59;41.55;;;20.20;;
11829;SDS011;5972;42.134;24.718;2022-12-10T05:29:26;44.78;;;19.73;;
11829;SDS011;5972;42.134;24.718;2022-12-10T05:31:53;46.88;;;20.30;;
11829;SDS011;5972;42.134;24.718;2022-12-10T05:34:20;38.70;;;19.17;;
11829;SDS011;5972;42.134;24.718;2022-12-10T05:36:49;46.15;;;21.50;;
11829;SDS011;5972;42.134;24.718;2022-12-10T05:39:16;42.88;;;19.30;;
11829;SDS011;5972;42.134;24.718;2022-12-10T05:41:44;40.00;;;19.67;;
11829;SDS011;5972;42.134;24.718;2022-12-10T05:44:10;42.28;;;19.48;;
11829;SDS011;5972;42.134;24.718;2022-12-10T05:46:38;44.90;;;20.45;;
11829;SDS011;5972;42.134;24.718;2022-12-10T05:49:05;52.40;;;19.52;;
11829;SDS011;5972;42.134;24.718;2022-12-10T05:51:33;48.17;;;20.38;;
11829;SDS011;5972;42.134;24.718;2022-12-10T05:54:03;48.80;;;21.10;;
11829;SDS011;5972;42.134;24.718;2022-12-10T05:56:31;50.60;;;21.15;;
11829;SDS011;5972;42.134;24.718;2022-12-10T05:59:01;50.10;;;20.35;;
11829;SDS011;5972;42.134;24.718;2022-12-10T06:01:30;48.45;;;20.20;;
11829;SDS011;5972;42.134;24.718;2022-12-10T06:03:58;48.40;;;20.92;;
11829;SDS011;5972;42.134;24.718;2022-12-10T06:06:26;53.92;;;21.23;;
11829;SDS011;5972;42.134;24.718;2022-12-10T06:08:55;61.03;;;21.45;;
11829;SDS011;5972;42.134;24.718;2022-12-10T06:11:23;53.55;;;21.67;;
11829;SDS011;5972;42.134;24.718;2022-12-10T06:13:51;74.28;;;20.55;;
11829;SDS011;5972;42.134;24.718;2022-12-10T06:16:19;57.00;;;21.42;;
11829;SDS011;5972;42.134;24.718;2022-12-10T06:18:47;46.65;;;21.33;;
11829;SDS011;5972;42.134;24.718;2022-12-10T06:21:14;46.85;;;19.63;;
11829;SDS011;5972;42.134;24.718;2022-12-10T06:23:42;55.13;;;19.65;;
11829;SDS011;5972;42.134;24.718;2022-12-10T06:26:10;35.25;;;18.70;;
11829;SDS011;5972;42.134;24.718;2022-12-10T06:28:38;36.72;;;18.08;;
11829;SDS011;5972;42.134;24.718;2022-12-10T06:31:06;38.58;;;18.08;;
11829;SDS011;5972;42.134;24.718;2022-12-10T06:33:34;41.30;;;18.58;;
11829;SDS011;5972;42.134;24.718;2022-12-10T06:36:03;34.40;;;16.63;;
11829;SDS011;5972;42.134;24.718;2022-12-10T06:38:31;37.13;;;17.58;;
11829;SDS011;5972;42.134;24.718;2022-12-10T06:40:58;31.55;;;16.70;;
11829;SDS011;5972;42.134;24.718;2022-12-10T06:43:27;40.30;;;18.40;;
11829;SDS011;5972;42.134;24.718;2022-12-10T06:45:55;42.00;;;17.90;;
11829;SDS011;5972;42.134;24.718;2022-12-10T06:48:21;33.13;;;17.98;;
11829;SDS011;5972;42.134;24.718;2022-12-10T06:50:50;33.45;;;17.73;;
11829;SDS011;5972;42.134;24.718;2022-12-10T06:53:16;37.03;;;18.25;;
11829;SDS011;5972;42.134;24.718;2022-12-10T06:55:43;33.83;;;17.23;;
11829;SDS011;5972;42.134;24.718;2022-12-10T06:58:10;33.45;;;16.33;;
11829;SDS011;5972;42.134;24.718;2022-12-10T07:00:37;33.20;;;15.30;;
11829;SDS011;5972;42.134;24.718;2022-12-10T07:03:04;28.15;;;15.52;;
11829;SDS011;5972;42.134;24.718;2022-12-10T07:05:31;33.08;;;16.70;;
11829;SDS011;5972;42.134;24.718;2022-12-10T07:07:59;35.30;;;17.00;;
11829;SDS011;5972;42.134;24.718;2022-12-10T07:10:26;35.05;;;17.13;;
11829;SDS011;5972;42.134;24.718;2022-12-10T07:12:53;32.33;;;16.27;;
11829;SDS011;5972;42.134;24.718;2022-12-10T07:15:20;32.42;;;15.77;;
11829;SDS011;5972;42.134;24.718;2022-12-10T07:17:48;30.98;;;15.55;;
11829;SDS011;5972;42.134;24.718;2022-12-10T07:20:17;34.22;;;17.17;;
11829;SDS011;5972;42.134;24.718;2022-12-10T07:22:44;30.88;;;15.88;;
11829;SDS011;5972;42.134;24.718;2022-12-10T07:25:12;29.27;;;16.05;;
11829;SDS011;5972;42.134;24.718;2022-12-10T07:27:38;30.15;;;15.85;;
11829;SDS011;5972;42.134;24.718;2022-12-10T07:30:06;32.17;;;16.83;;
11829;SDS011;5972;42.134;24.718;2022-12-10T07:32:33;33.28;;;17.17;;
11829;SDS011;5972;42.134;24.718;2022-12-10T07:35:00;35.50;;;18.05;;
11829;SDS011;5972;42.134;24.718;2022-12-10T07:37:27;33.80;;;17.27;;
11829;SDS011;5972;42.134;24.718;2022-12-10T07:39:54;31.00;;;16.00;;
11829;SDS011;5972;42.134;24.718;2022-12-10T07:42:22;30.13;;;15.70;;
11829;SDS011;5972;42.134;24.718;2022-12-10T07:44:48;33.63;;;17.85;;
11829;SDS011;5972;42.134;24.718;2022-12-10T07:47:15;37.33;;;18.27;;
11829;SDS011;5972;42.134;24.718;2022-12-10T07:49:42;36.17;;;18.05;;
11829;SDS011;5972;42.134;24.718;2022-12-10T07:52:09;31.60;;;17.92;;
11829;SDS011;5972;42.134;24.718;2022-12-10T07:54:36;33.45;;;17.27;;
11829;SDS011;5972;42.134;24.718;2022-12-10T07:57:03;31.45;;;16.98;;
11829;SDS011;5972;42.134;24.718;2022-12-10T07:59:31;30.40;;;16.75;;
11829;SDS011;5972;42.134;24.718;2022-12-10T08:01:58;28.60;;;17.38;;
11829;SDS011;5972;42.134;24.718;2022-12-10T08:04:27;30.52;;;17.60;;
11829;SDS011;5972;42.134;24.718;2022-12-10T08:06:54;31.00;;;17.52;;
11829;SDS011;5972;42.134;24.718;2022-12-10T08:09:22;32.38;;;18.20;;
11829;SDS011;5972;42.134;24.718;2022-12-10T08:11:49;34.13;;;18.58;;
11829;SDS011;5972;42.134;24.718;2022-12-10T08:14:15;34.65;;;18.45;;
11829;SDS011;5972;42.134;24.718;2022-12-10T08:16:43;30.63;;;17.50;;
11829;SDS011;5972;42.134;24.718;2022-12-10T08:19:10;33.47;;;18.75;;
11829;SDS011;5972;42.134;24.718;2022-12-10T08:21:37;32.97;;;18.73;;
11829;SDS011;5972;42.134;24.718;2022-12-10T08:24:04;37.40;;;18.52;;
11829;SDS011;5972;42.134;24.718;2022-12-10T08:26:32;30.40;;;17.98;;
11829;SDS011;5972;42.134;24.718;2022-12-10T08:29:00;32.75;;;18.05;;
11829;SDS011;5972;42.134;24.718;2022-12-10T08:31:27;29.83;;;17.17;;
11829;SDS011;5972;42.134;24.718;2022-12-10T08:33:56;37.42;;;18.73;;
11829;SDS011;5972;42.134;24.718;2022-12-10T08:36:22;31.85;;;18.67;;
11829;SDS011;5972;42.134;24.718;2022-12-10T08:38:49;31.85;;;17.95;;
11829;SDS011;5972;42.134;24.718;2022-12-10T08:41:17;31.50;;;17.60;;
11829;SDS011;5972;42.134;24.718;2022-12-10T08:43:46;30.42;;;17.90;;
11829;SDS011;5972;42.134;24.718;2022-12-10T08:46:13;33.97;;;21.00;;
11829;SDS011;5972;42.134;24.718;2022-12-10T08:48:41;29.10;;;18.38;;
11829;SDS011;5972;42.134;24.718;2022-12-10T08:51:10;31.25;;;17.95;;
11829;SDS011;5972;42.134;24.718;2022-12-10T08:53:39;30.17;;;17.42;;
11829;SDS011;5972;42.134;24.718;2022-12-10T08:56:06;33.00;;;18.45;;
11829;SDS011;5972;42.134;24.718;2022-12-10T08:58:33;29.15;;;17.48;;
11829;SDS011;5972;42.134;24.718;2022-12-10T09:01:00;22.27;;;15.07;;
11829;SDS011;5972;42.134;24.718;2022-12-10T09:03:32;24.55;;;15.55;;
11829;SDS011;5972;42.134;24.718;2022-12-10T09:06:01;26.23;;;15.63;;
11829;SDS011;5972;42.134;24.718;2022-12-10T09:08:30;27.50;;;14.73;;
11829;SDS011;5972;42.134;24.718;2022-12-10T09:10:57;26.42;;;14.63;;
11829;SDS011;5972;42.134;24.718;2022-12-10T09:13:24;24.98;;;15.43;;
11829;SDS011;5972;42.134;24.718;2022-12-10T09:15:51;25.75;;;15.65;;
11829;SDS011;5972;42.134;24.718;2022-12-10T09:18:18;19.30;;;13.35;;
11829;SDS011;5972;42.134;24.718;2022-12-10T09:20:45;20.80;;;14.50;;
11829;SDS011;5972;42.134;24.718;2022-12-10T09:23:12;16.05;;;11.07;;
11829;SDS011;5972;42.134;24.718;2022-12-10T09:25:40;19.90;;;11.65;;
11829;SDS011;5972;42.134;24.718;2022-12-10T09:28:07;20.10;;;12.98;;
11829;SDS011;5972;42.134;24.718;2022-12-10T09:30:34;19.17;;;12.07;;
11829;SDS011;5972;42.134;24.718;2022-12-10T09:33:01;19.98;;;12.88;;
11829;SDS011;5972;42.134;24.718;2022-12-10T09:35:28;20.55;;;12.43;;
11829;SDS011;5972;42.134;24.718;2022-12-10T09:37:55;19.60;;;11.98;;
11829;SDS011;5972;42.134;24.718;2022-12-10T09:40:24;16.70;;;12.10;;
11829;SDS011;5972;42.134;24.718;2022-12-10T09:43:00;22.25;;;13.27;;
11829;SDS011;5972;42.134;24.718;2022-12-10T09:45:37;29.10;;;16.98;;
11829;SDS011;5972;42.134;24.718;2022-12-10T09:48:13;21.13;;;12.23;;
11829;SDS011;5972;42.134;24.718;2022-12-10T09:50:48;15.43;;;10.20;;
11829;SDS011;5972;42.134;24.718;2022-12-10T09:53:22;12.80;;;10.18;;
11829;SDS011;5972;42.134;24.718;2022-12-10T09:55:51;12.75;;;10.05;;
11829;SDS011;5972;42.134;24.718;2022-12-10T09:58:20;14.18;;;10.57;;
11829;SDS011;5972;42.134;24.718;2022-12-10T10:00:50;16.45;;;10.35;;
11829;SDS011;5972;42.134;24.718;2022-12-10T10:03:22;16.98;;;11.05;;
11829;SDS011;5972;42.134;24.718;2022-12-10T10:05:49;17.10;;;10.27;;
11829;SDS011;5972;42.134;24.718;2022-12-10T10:08:20;15.50;;;9.93;;
11829;SDS011;5972;42.134;24.718;2022-12-10T10:10:53;13.32;;;10.10;;
11829;SDS011;5972;42.134;24.718;2022-12-10T10:13:26;14.30;;;9.90;;
11829;SDS011;5972;42.134;24.718;2022-12-10T10:15:58;14.85;;;9.73;;
11829;SDS011;5972;42.134;24.718;2022-12-10T10:18:35;13.18;;;9.73;;
11829;SDS011;5972;42.134;24.718;2022-12-10T10:21:07;16.00;;;10.20;;
11829;SDS011;5972;42.134;24.718;2022-12-10T10:23:40;15.48;;;9.98;;
11829;SDS011;5972;42.134;24.718;2022-12-10T10:26:11;13.27;;;9.85;;
11829;SDS011;5972;42.134;24.718;2022-12-10T10:28:39;15.95;;;10.10;;
11829;SDS011;5972;42.134;24.718;2022-12-10T10:33:47;17.63;;;11.13;;
11829;SDS011;5972;42.134;24.718;2022-12-10T10:36:15;20.17;;;11.60;;
11829;SDS011;5972;42.134;24.718;2022-12-10T10:38:46;16.20;;;11.00;;
11829;SDS011;5972;42.134;24.718;2022-12-10T10:41:14;18.77;;;10.63;;
11829;SDS011;5972;42.134;24.718;2022-12-10T10:43:43;15.90;;;10.35;;
11829;SDS011;5972;42.134;24.718;2022-12-10T10:46:12;16.90;;;10.63;;
11829;SDS011;5972;42.134;24.718;2022-12-10T10:48:41;15.70;;;10.50;;
11829;SDS011;5972;42.134;24.718;2022-12-10T10:51:13;16.13;;;10.88;;
11829;SDS011;5972;42.134;24.718;2022-12-10T10:53:46;15.68;;;11.38;;
11829;SDS011;5972;42.134;24.718;2022-12-10T10:56:16;19.88;;;11.88;;
11829;SDS011;5972;42.134;24.718;2022-12-10T10:58:49;15.38;;;10.85;;
11829;SDS011;5972;42.134;24.718;2022-12-10T11:01:20;18.42;;;11.48;;
11829;SDS011;5972;42.134;24.718;2022-12-10T11:03:48;20.85;;;11.93;;
11829;SDS011;5972;42.134;24.718;2022-12-10T11:06:16;18.20;;;12.25;;
11829;SDS011;5972;42.134;24.718;2022-12-10T11:08:44;19.70;;;12.48;;
11829;SDS011;5972;42.134;24.718;2022-12-10T11:11:17;21.65;;;12.23;;
11829;SDS011;5972;42.134;24.718;2022-12-10T11:13:47;22.27;;;12.50;;
11829;SDS011;5972;42.134;24.718;2022-12-10T11:16:17;27.67;;;12.52;;
11829;SDS011;5972;42.134;24.718;2022-12-10T11:18:52;21.65;;;12.50;;
11829;SDS011;5972;42.134;24.718;2022-12-10T11:21:22;22.40;;;13.02;;
11829;SDS011;5972;42.134;24.718;2022-12-10T11:23:51;18.20;;;12.20;;
11829;SDS011;5972;42.134;24.718;2022-12-10T11:26:35;22.52;;;13.25;;
11829;SDS011;5972;42.134;24.718;2022-12-10T11:29:20;26.60;;;14.00;;
11829;SDS011;5972;42.134;24.718;2022-12-10T11:31:56;20.98;;;12.98;;
11829;SDS011;5972;42.134;24.718;2022-12-10T11:34:38;19.63;;;13.10;;
11829;SDS011;5972;42.134;24.718;2022-12-10T11:37:16;24.55;;;14.07;;
11829;SDS011;5972;42.134;24.718;2022-12-10T11:39:52;22.80;;;14.80;;
11829;SDS011;5972;42.134;24.718;2022-12-10T11:42:30;27.48;;;13.50;;
11829;SDS011;5972;42.134;24.718;2022-12-10T11:45:09;20.25;;;14.75;;
11829;SDS011;5972;42.134;24.718;2022-12-10T11:47:47;22.25;;;15.70;;
11829;SDS011;5972;42.134;24.718;2022-12-10T11:50:25;31.13;;;17.02;;
11829;SDS011;5972;42.134;24.718;2022-12-10T11:53:12;28.65;;;15.80;;
11829;SDS011;5972;42.134;24.718;2022-12-10T11:55:47;34.38;;;17.45;;
11829;SDS011;5972;42.134;24.718;2022-12-10T11:58:25;24.65;;;17.02;;
11829;SDS011;5972;42.134;24.718;2022-12-10T12:01:09;25.92;;;16.67;;
11829;SDS011;5972;42.134;24.718;2022-12-10T12:03:50;28.23;;;17.25;;
11829;SDS011;5972;42.134;24.718;2022-12-10T12:06:43;36.13;;;18.55;;
11829;SDS011;5972;42.134;24.718;2022-12-10T12:09:29;40.95;;;18.45;;
11829;SDS011;5972;42.134;24.718;2022-12-10T12:12:13;33.22;;;18.27;;
11829;SDS011;5972;42.134;24.718;2022-12-10T12:14:51;29.30;;;17.73;;
11829;SDS011;5972;42.134;24.718;2022-12-10T12:17:23;33.17;;;20.02;;
11829;SDS011;5972;42.134;24.718;2022-12-10T12:19:53;30.27;;;17.92;;
11829;SDS011;5972;42.134;24.718;2022-12-10T12:22:24;33.72;;;19.63;;
11829;SDS011;5972;42.134;24.718;2022-12-10T12:24:54;31.55;;;19.25;;
11829;SDS011;5972;42.134;24.718;2022-12-10T12:27:25;35.88;;;19.67;;
11829;SDS011;5972;42.134;24.718;2022-12-10T12:30:00;38.83;;;20.92;;
11829;SDS011;5972;42.134;24.718;2022-12-10T12:32:35;42.00;;;22.30;;
11829;SDS011;5972;42.134;24.718;2022-12-10T12:35:10;39.38;;;22.90;;
11829;SDS011;5972;42.134;24.718;2022-12-10T12:37:41;48.00;;;23.55;;
11829;SDS011;5972;42.134;24.718;2022-12-10T12:40:13;42.15;;;26.13;;
11829;SDS011;5972;42.134;24.718;2022-12-10T12:42:47;36.85;;;22.90;;
11829;SDS011;5972;42.134;24.718;2022-12-10T12:45:20;44.35;;;23.17;;
11829;SDS011;5972;42.134;24.718;2022-12-10T12:47:57;34.22;;;22.75;;
11829;SDS011;5972;42.134;24.718;2022-12-10T12:50:34;39.53;;;23.00;;
11829;SDS011;5972;42.134;24.718;2022-12-10T12:53:08;40.85;;;23.65;;
11829;SDS011;5972;42.134;24.718;2022-12-10T12:55:38;36.10;;;23.58;;
11829;SDS011;5972;42.134;24.718;2022-12-10T12:58:17;40.05;;;23.33;;
11829;SDS011;5972;42.134;24.718;2022-12-10T13:00:52;39.10;;;23.10;;
11829;SDS011;5972;42.134;24.718;2022-12-10T13:03:32;44.45;;;25.38;;
11829;SDS011;5972;42.134;24.718;2022-12-10T13:06:13;38.25;;;23.85;;
11829;SDS011;5972;42.134;24.718;2022-12-10T13:08:41;43.72;;;27.45;;
11829;SDS011;5972;42.134;24.718;2022-12-10T13:14:14;43.28;;;24.00;;
11829;SDS011;5972;42.134;24.718;2022-12-10T13:17:05;42.28;;;25.42;;
11829;SDS011;5972;42.134;24.718;2022-12-10T13:19:36;39.78;;;24.50;;
11829;SDS011;5972;42.134;24.718;2022-12-10T13:22:05;41.95;;;26.52;;
11829;SDS011;5972;42.134;24.718;2022-12-10T13:24:46;38.15;;;23.42;;
11829;SDS011;5972;42.134;24.718;2022-12-10T13:27:30;41.15;;;23.60;;
11829;SDS011;5972;42.134;24.718;2022-12-10T13:30:00;42.75;;;25.17;;
11829;SDS011;5972;42.134;24.718;2022-12-10T13:32:44;40.15;;;26.17;;
11829;SDS011;5972;42.134;24.718;2022-12-10T13:35:22;46.08;;;26.20;;
11829;SDS011;5972;42.134;24.718;2022-12-10T13:37:54;37.47;;;24.00;;
11829;SDS011;5972;42.134;24.718;2022-12-10T13:40:24;43.70;;;24.67;;
11829;SDS011;5972;42.134;24.718;2022-12-10T13:42:57;40.80;;;26.00;;
11829;SDS011;5972;42.134;24.718;2022-12-10T13:45:42;36.65;;;23.70;;
11829;SDS011;5972;42.134;24.718;2022-12-10T13:48:17;46.78;;;26.58;;
11829;SDS011;5972;42.134;24.718;2022-12-10T13:53:56;45.30;;;26.13;;
11829;SDS011;5972;42.134;24.718;2022-12-10T13:56:35;52.83;;;26.58;;
11829;SDS011;5972;42.134;24.718;2022-12-10T13:59:16;43.13;;;27.17;;
11829;SDS011;5972;42.134;24.718;2022-12-10T14:01:55;40.42;;;27.15;;
11829;SDS011;5972;42.134;24.718;2022-12-10T14:04:36;43.35;;;26.80;;
11829;SDS011;5972;42.134;24.718;2022-12-10T14:07:13;47.20;;;28.83;;
11829;SDS011;5972;42.134;24.718;2022-12-10T14:09:45;39.83;;;26.60;;
11829;SDS011;5972;42.134;24.718;2022-12-10T14:12:17;54.38;;;32.33;;
11829;SDS011;5972;42.134;24.718;2022-12-10T14:14:47;45.55;;;29.23;;
11829;SDS011;5972;42.134;24.718;2022-12-10T14:17:19;61.83;;;43.00;;
11829;SDS011;5972;42.134;24.718;2022-12-10T14:19:50;60.83;;;41.10;;
11829;SDS011;5972;42.134;24.718;2022-12-10T14:22:24;58.45;;;37.22;;
11829;SDS011;5972;42.134;24.718;2022-12-10T14:24:58;57.30;;;36.28;;
11829;SDS011;5972;42.134;24.718;2022-12-10T14:27:26;59.70;;;32.63;;
11829;SDS011;5972;42.134;24.718;2022-12-10T14:29:57;57.50;;;32.40;;
11829;SDS011;5972;42.134;24.718;2022-12-10T14:32:28;54.00;;;35.42;;
11829;SDS011;5972;42.134;24.718;2022-12-10T14:34:59;50.75;;;33.40;;
11829;SDS011;5972;42.134;24.718;2022-12-10T14:37:28;66.20;;;35.92;;
11829;SDS011;5972;42.134;24.718;2022-12-10T14:39:57;47.60;;;30.85;;
11829;SDS011;5972;42.134;24.718;2022-12-10T14:42:24;59.90;;;34.13;;
11829;SDS011;5972;42.134;24.718;2022-12-10T14:44:54;63.70;;;34.00;;
11829;SDS011;5972;42.134;24.718;2022-12-10T14:47:25;57.60;;;33.75;;